createdAt,value
2023-04-08T00:01:49.779Z,20.12
2023-04-08T00:04:16.526Z,20.11
2023-04-08T00:06:42.927Z,20.13
2023-04-08T00:09:09.260Z,20.11
2023-04-08T00:11:35.904Z,20.09
2023-04-08T00:14:02.707Z,20.09
2023-04-08T00:16:29.074Z,20.09
2023-04-08T00:18:55.561Z,20.08
2023-04-08T00:21:22.002Z,20.07
2023-04-08T00:23:48.332Z,20.07
2023-04-08T00:26:14.666Z,20.06
2023-04-08T00:28:43.118Z,20.06
2023-04-08T00:31:09.582Z,20.05
2023-04-08T00:33:36.447Z,20.06
2023-04-08T00:36:03.224Z,20.05
2023-04-08T00:38:29.547Z,20.03
2023-04-08T00:40:56.002Z,20.04
2023-04-08T00:43:22.511Z,20.06
2023-04-08T00:45:48.902Z,20.05
2023-04-08T00:48:16.306Z,20.06
2023-04-08T00:50:47.033Z,20.05
2023-04-08T00:53:15.564Z,20.05
2023-04-08T00:55:41.913Z,20.03
2023-04-08T00:58:08.238Z,20.04
2023-04-08T01:00:34.566Z,20.02
2023-04-08T01:03:04.003Z,20.02
2023-04-08T01:05:40.339Z,20.02
2023-04-08T01:08:06.844Z,20.01
2023-04-08T01:10:33.746Z,20.01
2023-04-08T01:13:01.659Z,20.02
2023-04-08T01:15:28.099Z,20.01
2023-04-08T01:17:55.029Z,20.00
2023-04-08T01:20:22.854Z,20.00
2023-04-08T01:22:54.783Z,19.99
2023-04-08T01:25:21.710Z,19.99
2023-04-08T01:27:48.593Z,19.98
2023-04-08T01:30:16.187Z,19.98
2023-04-08T01:32:42.547Z,19.98
2023-04-08T01:35:09.388Z,19.98
2023-04-08T01:37:35.783Z,19.97
2023-04-08T01:40:02.360Z,19.97
2023-04-08T01:42:28.690Z,19.96
2023-04-08T01:44:55.788Z,19.95
2023-04-08T01:47:22.135Z,19.95
2023-04-08T01:49:48.502Z,19.95
2023-04-08T01:52:14.850Z,19.94
2023-04-08T01:54:41.207Z,19.94
2023-04-08T01:57:08.838Z,19.94
2023-04-08T01:59:35.750Z,19.93
2023-04-08T02:02:02.278Z,19.93
2023-04-08T02:04:28.861Z,19.93
2023-04-08T02:06:56.504Z,19.92
2023-04-08T02:09:22.842Z,19.91
2023-04-08T02:11:49.166Z,19.92
2023-04-08T02:14:15.515Z,19.91
2023-04-08T02:16:48.722Z,19.90
2023-04-08T02:19:16.656Z,19.90
2023-04-08T02:21:44.201Z,19.90
2023-04-08T02:24:10.542Z,19.89
2023-04-08T02:26:36.914Z,19.88
2023-04-08T02:29:03.674Z,19.88
2023-04-08T02:31:30.108Z,19.89
2023-04-08T02:33:56.425Z,19.88
2023-04-08T02:36:22.753Z,19.87
2023-04-08T02:38:50.002Z,19.87
2023-04-08T02:41:16.840Z,19.87
2023-04-08T02:43:43.157Z,19.87
2023-04-08T02:46:10.497Z,19.86
2023-04-08T02:48:36.867Z,19.87
2023-04-08T02:51:03.463Z,19.90
2023-04-08T02:53:29.841Z,19.92
2023-04-08T02:55:56.207Z,19.94
2023-04-08T02:58:22.550Z,19.94
2023-04-08T03:00:48.924Z,19.94
2023-04-08T03:03:15.330Z,19.97
2023-04-08T03:05:41.698Z,19.98
2023-04-08T03:08:08.028Z,19.98
2023-04-08T03:10:34.360Z,19.99
2023-04-08T03:13:00.708Z,20.00
2023-04-08T03:15:27.317Z,19.98
2023-04-08T03:17:53.725Z,19.98
2023-04-08T03:20:20.065Z,20.00
2023-04-08T03:22:46.549Z,20.01
2023-04-08T03:25:12.884Z,20.01
2023-04-08T03:27:39.237Z,20.02
2023-04-08T03:30:06.024Z,20.02
2023-04-08T03:32:32.686Z,20.04
2023-04-08T03:34:59.044Z,20.04
2023-04-08T03:37:25.477Z,20.04
2023-04-08T03:39:51.818Z,20.05
2023-04-08T03:42:18.187Z,20.05
2023-04-08T03:44:44.541Z,20.04
2023-04-08T03:47:10.856Z,20.03
2023-04-08T03:49:37.166Z,20.04
2023-04-08T03:52:03.481Z,20.05
2023-04-08T03:54:29.805Z,20.04
2023-04-08T03:56:56.216Z,20.05
2023-04-08T03:59:23.072Z,20.07
2023-04-08T04:01:51.253Z,20.07
2023-04-08T04:04:17.837Z,20.08
2023-04-08T04:06:44.314Z,20.08
2023-04-08T04:09:11.274Z,20.09
2023-04-08T04:11:37.595Z,20.08
2023-04-08T04:14:03.938Z,20.08
2023-04-08T04:16:32.707Z,20.09
2023-04-08T04:18:59.532Z,20.09
2023-04-08T04:21:27.062Z,20.08
2023-04-08T04:23:53.429Z,20.08
2023-04-08T04:26:19.749Z,20.07
2023-04-08T04:28:46.077Z,20.08
2023-04-08T04:31:21.894Z,20.09
2023-04-08T04:33:48.572Z,20.11
2023-04-08T04:36:15.272Z,20.11
2023-04-08T04:38:42.792Z,20.12
2023-04-08T04:41:09.131Z,20.13
2023-04-08T04:43:35.621Z,20.12
2023-04-08T04:46:03.711Z,20.13
2023-04-08T04:48:30.053Z,20.11
2023-04-08T04:50:56.636Z,20.12
2023-04-08T04:53:22.963Z,20.11
2023-04-08T04:55:49.959Z,20.11
2023-04-08T04:58:16.439Z,20.11
2023-04-08T05:00:42.777Z,20.15
2023-04-08T05:03:09.213Z,20.21
2023-04-08T05:05:35.884Z,20.15
2023-04-08T05:08:02.207Z,20.13
2023-04-08T05:10:28.545Z,20.15
2023-04-08T05:12:54.878Z,20.13
2023-04-08T05:15:21.422Z,20.18
2023-04-08T05:17:47.843Z,20.19
2023-04-08T05:20:15.396Z,20.19
2023-04-08T05:22:45.258Z,20.19
2023-04-08T05:25:11.668Z,20.18
2023-04-08T05:27:38.326Z,20.18
2023-04-08T05:30:04.853Z,20.15
2023-04-08T05:32:31.289Z,20.14
2023-04-08T05:34:57.629Z,20.12
2023-04-08T05:37:23.969Z,20.13
2023-04-08T05:39:50.586Z,20.14
2023-04-08T05:42:16.916Z,20.14
2023-04-08T05:44:43.947Z,20.15
2023-04-08T05:47:10.689Z,20.15
2023-04-08T05:49:37.084Z,20.17
2023-04-08T05:52:03.760Z,20.21
2023-04-08T05:54:30.291Z,20.16
2023-04-08T05:56:56.636Z,20.17
2023-04-08T05:59:22.967Z,20.05
2023-04-08T06:01:49.331Z,20.06
2023-04-08T06:04:17.550Z,20.09
2023-04-08T06:06:44.108Z,20.12
2023-04-08T06:09:10.437Z,20.12
2023-04-08T06:11:36.782Z,20.13
2023-04-08T06:14:03.149Z,20.13
2023-04-08T06:16:29.505Z,20.13
2023-04-08T06:18:55.835Z,20.15
2023-04-08T06:21:22.164Z,20.18
2023-04-08T06:23:48.476Z,20.19
2023-04-08T06:26:14.845Z,20.20
2023-04-08T06:28:41.158Z,20.20
2023-04-08T06:31:07.494Z,20.19
2023-04-08T06:33:33.805Z,20.19
2023-04-08T06:36:06.350Z,20.19
2023-04-08T06:38:32.720Z,20.20
2023-04-08T06:41:02.484Z,20.20
2023-04-08T06:43:29.290Z,20.19
2023-04-08T06:45:55.637Z,20.20
2023-04-08T06:48:23.447Z,20.21
2023-04-08T06:50:49.769Z,20.22
2023-04-08T06:53:16.092Z,20.23
2023-04-08T06:55:42.418Z,20.23
2023-04-08T06:58:08.734Z,20.24
2023-04-08T07:00:35.108Z,20.24
2023-04-08T07:03:01.523Z,20.24
2023-04-08T07:05:27.887Z,20.25
2023-04-08T07:07:54.247Z,20.24
2023-04-08T07:10:20.595Z,20.23
2023-04-08T07:12:46.922Z,20.22
2023-04-08T07:15:13.241Z,20.21
2023-04-08T07:17:39.633Z,20.21
2023-04-08T07:20:06.542Z,20.22
2023-04-08T07:22:32.946Z,20.23
2023-04-08T07:24:59.278Z,20.24
2023-04-08T07:27:25.697Z,20.24
2023-04-08T07:29:55.127Z,20.27
2023-04-08T07:32:21.857Z,20.29
2023-04-08T07:34:48.375Z,20.26
2023-04-08T07:37:14.705Z,20.24
2023-04-08T07:39:41.338Z,20.27
2023-04-08T07:42:07.648Z,20.23
2023-04-08T07:44:33.978Z,19.84
2023-04-08T07:47:00.301Z,20.04
2023-04-08T07:49:26.643Z,20.14
2023-04-08T07:51:53.162Z,20.19
2023-04-08T07:54:19.498Z,20.21
2023-04-08T07:56:45.956Z,20.32
2023-04-08T07:59:12.331Z,20.31
2023-04-08T08:01:38.669Z,20.26
2023-04-08T08:04:05.596Z,20.28
2023-04-08T08:06:34.954Z,20.33
2023-04-08T08:09:01.317Z,19.84
2023-04-08T08:11:28.049Z,18.83
2023-04-08T08:13:54.376Z,19.24
2023-04-08T08:16:20.817Z,19.67
2023-04-08T08:18:47.194Z,19.93
2023-04-08T08:21:13.514Z,20.06
2023-04-08T08:23:39.842Z,20.12
2023-04-08T08:26:10.009Z,20.15
2023-04-08T08:28:36.647Z,20.17
2023-04-08T08:31:03.554Z,20.22
2023-04-08T08:33:29.974Z,20.26
2023-04-08T08:35:57.948Z,20.26
2023-04-08T08:38:24.574Z,20.27
2023-04-08T08:40:54.101Z,20.29
2023-04-08T08:43:20.427Z,20.29
2023-04-08T08:45:46.922Z,19.43
2023-04-08T08:48:13.248Z,19.73
2023-04-08T08:50:39.569Z,19.99
2023-04-08T08:53:05.900Z,20.14
2023-04-08T08:55:50.888Z,20.20
2023-04-08T08:58:20.143Z,20.25
2023-04-08T09:00:46.736Z,20.27
2023-04-08T09:03:17.047Z,20.28
2023-04-08T09:05:59.568Z,20.30
2023-04-08T09:08:32.522Z,20.32
2023-04-08T09:11:12.430Z,20.30
2023-04-08T09:13:38.767Z,20.34
2023-04-08T09:16:05.842Z,20.34
2023-04-08T09:18:32.490Z,20.36
2023-04-08T09:21:02.213Z,20.38
2023-04-08T09:23:41.348Z,20.37
2023-04-08T09:26:08.716Z,20.39
2023-04-08T09:28:35.047Z,20.41
2023-04-08T09:31:01.352Z,20.40
2023-04-08T09:33:31.697Z,20.40
2023-04-08T09:35:58.409Z,20.40
2023-04-08T09:38:24.801Z,20.42
2023-04-08T09:40:51.140Z,20.41
2023-04-08T09:43:18.321Z,20.42
2023-04-08T09:45:44.691Z,20.41
2023-04-08T09:48:13.471Z,20.41
2023-04-08T09:50:42.942Z,20.40
2023-04-08T09:53:15.269Z,20.41
2023-04-08T09:55:41.596Z,20.43
2023-04-08T09:58:18.687Z,20.45
2023-04-08T10:00:50.652Z,20.46
2023-04-08T10:03:23.278Z,20.47
2023-04-08T10:05:49.717Z,20.45
2023-04-08T10:08:16.026Z,20.43
2023-04-08T10:10:42.382Z,20.45
2023-04-08T10:13:08.702Z,20.49
2023-04-08T10:15:36.644Z,20.52
2023-04-08T10:18:02.974Z,20.48
2023-04-08T10:20:38.516Z,20.47
2023-04-08T10:23:05.311Z,20.48
2023-04-08T10:25:35.054Z,20.44
2023-04-08T10:28:01.921Z,20.45
2023-04-08T10:30:28.207Z,20.45
2023-04-08T10:32:56.556Z,20.45
2023-04-08T10:35:29.358Z,20.44
2023-04-08T10:37:55.900Z,20.44
2023-04-08T10:40:22.218Z,20.45
2023-04-08T10:42:54.181Z,20.44
2023-04-08T10:45:20.661Z,20.44
2023-04-08T10:47:46.999Z,20.43
2023-04-08T10:50:13.938Z,20.45
2023-04-08T10:52:47.219Z,20.45
2023-04-08T10:55:13.555Z,20.45
2023-04-08T10:57:41.368Z,20.44
2023-04-08T11:00:10.809Z,20.45
2023-04-08T11:02:39.991Z,20.50
2023-04-08T11:05:07.027Z,20.49
2023-04-08T11:07:33.371Z,20.53
2023-04-08T11:10:02.885Z,20.50
2023-04-08T11:12:29.889Z,20.50
2023-04-08T11:14:56.268Z,20.53
2023-04-08T11:17:22.693Z,20.56
2023-04-08T11:19:49.034Z,20.55
2023-04-08T11:22:15.751Z,20.53
2023-04-08T11:24:42.486Z,20.50
2023-04-08T11:27:08.846Z,20.51
2023-04-08T11:29:35.237Z,20.51
2023-04-08T11:32:01.665Z,20.50
2023-04-08T11:34:28.159Z,20.51
2023-04-08T11:36:56.167Z,19.92
2023-04-08T11:39:22.785Z,19.54
2023-04-08T11:41:50.022Z,19.91
2023-04-08T11:44:16.354Z,20.15
2023-04-08T11:46:42.776Z,20.31
2023-04-08T11:49:09.988Z,19.72
2023-04-08T11:51:53.995Z,19.79
2023-04-08T11:54:27.091Z,19.95
2023-04-08T11:56:53.682Z,20.11
2023-04-08T11:59:20.085Z,20.24
2023-04-08T12:01:46.716Z,20.32
2023-04-08T12:04:13.275Z,20.38
2023-04-08T12:06:41.564Z,20.39
2023-04-08T12:09:07.998Z,20.40
2023-04-08T12:11:34.376Z,20.49
2023-04-08T12:14:00.696Z,20.46
2023-04-08T12:16:27.154Z,20.44
2023-04-08T12:18:53.677Z,20.43
2023-04-08T12:21:20.009Z,20.15
2023-04-08T12:23:46.408Z,20.32
2023-04-08T12:26:13.276Z,20.41
2023-04-08T12:28:39.603Z,20.45
2023-04-08T12:31:06.034Z,20.46
2023-04-08T12:33:32.387Z,20.45
2023-04-08T12:35:59.306Z,20.45
2023-04-08T12:38:27.034Z,20.46
2023-04-08T12:40:53.389Z,20.49
2023-04-08T12:43:19.728Z,20.47
2023-04-08T12:45:46.043Z,20.46
2023-04-08T12:48:12.379Z,20.46
2023-04-08T12:50:38.683Z,20.46
2023-04-08T12:53:05.000Z,20.48
2023-04-08T12:55:31.316Z,20.47
2023-04-08T12:57:57.806Z,20.48
2023-04-08T13:00:24.120Z,20.48
2023-04-08T13:02:50.538Z,20.48
2023-04-08T13:05:19.733Z,20.46
2023-04-08T13:07:47.956Z,20.46
2023-04-08T13:10:14.277Z,20.48
2023-04-08T13:12:41.179Z,20.48
2023-04-08T13:15:07.836Z,20.50
2023-04-08T13:17:34.204Z,20.51
2023-04-08T13:20:00.840Z,20.53
2023-04-08T13:22:27.176Z,20.53
2023-04-08T13:24:53.495Z,20.54
2023-04-08T13:27:19.818Z,20.58
2023-04-08T13:29:46.182Z,20.54
2023-04-08T13:32:12.549Z,20.55
2023-04-08T13:34:38.987Z,20.54
2023-04-08T13:37:05.311Z,20.53
2023-04-08T13:39:31.757Z,20.50
2023-04-08T13:41:58.490Z,20.52
2023-04-08T13:44:24.858Z,20.54
2023-04-08T13:46:51.532Z,20.54
2023-04-08T13:49:17.865Z,20.54
2023-04-08T13:51:44.188Z,20.52
2023-04-08T13:54:10.517Z,20.55
2023-04-08T13:56:36.835Z,20.57
2023-04-08T13:59:03.595Z,20.59
2023-04-08T14:01:30.066Z,20.60
2023-04-08T14:03:56.820Z,20.57
2023-04-08T14:06:23.167Z,20.57
2023-04-08T14:08:49.778Z,20.60
2023-04-08T14:11:16.331Z,20.63
2023-04-08T14:13:42.669Z,20.64
2023-04-08T14:16:09.025Z,20.63
2023-04-08T14:18:35.364Z,20.66
2023-04-08T14:21:02.592Z,20.65
2023-04-08T14:23:29.010Z,20.67
2023-04-08T14:25:55.348Z,20.66
2023-04-08T14:28:21.660Z,20.69
2023-04-08T14:30:48.088Z,20.69
2023-04-08T14:33:14.460Z,20.70
2023-04-08T14:35:40.819Z,20.71
2023-04-08T14:38:07.143Z,20.72
2023-04-08T14:40:33.456Z,20.71
2023-04-08T14:42:59.803Z,20.70
2023-04-08T14:45:26.148Z,20.70
2023-04-08T14:47:52.504Z,20.71
2023-04-08T14:50:19.368Z,20.69
2023-04-08T14:52:48.409Z,20.69
2023-04-08T14:55:14.736Z,20.71
2023-04-08T14:57:41.218Z,20.71
2023-04-08T15:00:08.379Z,20.71
2023-04-08T15:02:34.771Z,20.68
2023-04-08T15:05:01.302Z,20.70
2023-04-08T15:07:27.642Z,20.72
2023-04-08T15:09:54.330Z,20.72
2023-04-08T15:12:21.143Z,20.72
2023-04-08T15:14:47.472Z,20.72
2023-04-08T15:17:13.793Z,20.71
2023-04-08T15:19:40.267Z,20.72
2023-04-08T15:22:06.711Z,20.70
2023-04-08T15:24:33.029Z,20.71
2023-04-08T15:26:59.340Z,20.69
2023-04-08T15:29:26.054Z,20.70
2023-04-08T15:31:52.631Z,20.68
2023-04-08T15:34:18.976Z,20.69
2023-04-08T15:36:45.668Z,20.69
2023-04-08T15:39:12.138Z,20.68
2023-04-08T15:41:38.756Z,20.68
2023-04-08T15:44:05.080Z,20.67
2023-04-08T15:46:31.463Z,20.68
2023-04-08T15:48:58.765Z,20.70
2023-04-08T15:51:26.958Z,20.67
2023-04-08T15:53:53.290Z,20.67
2023-04-08T15:56:19.729Z,20.68
2023-04-08T15:58:46.209Z,20.70
2023-04-08T16:01:12.635Z,20.72
2023-04-08T16:03:39.127Z,20.76
2023-04-08T16:06:08.594Z,20.70
2023-04-08T16:08:35.071Z,20.38
2023-04-08T16:11:02.533Z,20.08
2023-04-08T16:13:29.990Z,20.29
2023-04-08T16:15:57.113Z,20.42
2023-04-08T16:18:23.586Z,20.51
2023-04-08T16:20:50.073Z,20.55
2023-04-08T16:23:17.750Z,20.56
2023-04-08T16:25:44.379Z,20.60
2023-04-08T16:28:11.022Z,20.59
2023-04-08T16:30:37.636Z,20.60
2023-04-08T16:33:04.345Z,20.60
2023-04-08T16:35:30.730Z,20.58
2023-04-08T16:37:57.083Z,20.59
2023-04-08T16:40:23.425Z,20.60
2023-04-08T16:42:49.767Z,20.59
2023-04-08T16:45:16.086Z,20.59
2023-04-08T16:47:42.429Z,20.57
2023-04-08T16:50:08.877Z,20.57
2023-04-08T16:52:35.696Z,20.56
2023-04-08T16:55:02.056Z,20.55
2023-04-08T16:57:28.386Z,20.58
2023-04-08T16:59:54.759Z,20.53
2023-04-08T17:02:21.755Z,20.54
2023-04-08T17:04:50.921Z,20.54
2023-04-08T17:07:17.252Z,20.53
2023-04-08T17:09:43.582Z,20.44
2023-04-08T17:12:09.897Z,20.51
2023-04-08T17:14:36.525Z,20.52
2023-04-08T17:17:02.905Z,20.40
2023-04-08T17:19:29.241Z,20.41
2023-04-08T17:21:55.754Z,20.45
2023-04-08T17:24:22.161Z,20.47
2023-04-08T17:26:49.212Z,20.47
2023-04-08T17:29:15.558Z,20.49
2023-04-08T17:31:42.066Z,20.49
2023-04-08T17:34:08.449Z,20.48
2023-04-08T17:36:34.781Z,20.49
2023-04-08T17:39:01.292Z,20.49
2023-04-08T17:41:39.025Z,20.48
2023-04-08T17:44:06.697Z,20.47
2023-04-08T17:46:33.308Z,20.49
2023-04-08T17:48:59.979Z,20.49
2023-04-08T17:51:26.363Z,20.48
2023-04-08T17:53:52.926Z,20.47
2023-04-08T17:56:19.462Z,20.49
2023-04-08T17:58:48.147Z,20.49
2023-04-08T18:01:15.278Z,20.47
2023-04-08T18:03:42.139Z,20.47
2023-04-08T18:06:08.992Z,20.45
2023-04-08T18:08:35.733Z,20.44
2023-04-08T18:11:05.643Z,20.44
2023-04-08T18:13:31.985Z,20.44
2023-04-08T18:15:58.333Z,20.42
2023-04-08T18:18:25.005Z,20.44
2023-04-08T18:20:51.355Z,20.45
2023-04-08T18:23:17.683Z,20.44
2023-04-08T18:25:46.918Z,20.46
2023-04-08T18:28:13.252Z,20.46
2023-04-08T18:30:39.585Z,20.47
2023-04-08T18:33:06.593Z,20.48
2023-04-08T18:35:32.931Z,20.49
2023-04-08T18:37:59.314Z,20.48
2023-04-08T18:40:25.680Z,20.48
2023-04-08T18:42:51.995Z,20.48
2023-04-08T18:45:18.651Z,20.48
2023-04-08T18:47:44.984Z,20.48
2023-04-08T18:50:11.351Z,20.49
2023-04-08T18:52:38.815Z,20.49
2023-04-08T18:55:05.327Z,20.46
2023-04-08T18:57:31.662Z,20.47
2023-04-08T18:59:58.030Z,20.47
2023-04-08T19:02:24.521Z,20.46
2023-04-08T19:04:51.976Z,20.46
2023-04-08T19:07:18.300Z,20.48
2023-04-08T19:09:44.653Z,20.50
2023-04-08T19:12:10.982Z,20.49
2023-04-08T19:14:37.415Z,20.49
2023-04-08T19:17:03.864Z,20.51
2023-04-08T19:19:30.193Z,20.50
2023-04-08T19:21:56.518Z,20.50
2023-04-08T19:24:22.863Z,20.51
2023-04-08T19:26:50.689Z,20.48
2023-04-08T19:29:19.410Z,20.49
2023-04-08T19:31:45.949Z,20.47
2023-04-08T19:34:12.532Z,20.50
2023-04-08T19:36:38.877Z,20.50
2023-04-08T19:39:05.875Z,20.50
2023-04-08T19:41:32.208Z,20.48
2023-04-08T19:43:58.528Z,20.48
2023-04-08T19:46:24.903Z,20.49
2023-04-08T19:48:51.276Z,20.47
2023-04-08T19:51:20.184Z,20.48
2023-04-08T19:53:46.872Z,20.47
2023-04-08T19:56:13.506Z,20.46
2023-04-08T19:58:39.837Z,20.46
2023-04-08T20:01:07.357Z,20.46
2023-04-08T20:03:33.872Z,20.46
2023-04-08T20:06:00.833Z,20.46
2023-04-08T20:08:27.194Z,20.46
2023-04-08T20:10:53.938Z,20.47
2023-04-08T20:13:20.648Z,20.46
2023-04-08T20:15:47.015Z,20.49
2023-04-08T20:18:16.143Z,20.48
2023-04-08T20:20:42.930Z,20.48
2023-04-08T20:23:09.273Z,20.47
2023-04-08T20:25:35.632Z,20.48
2023-04-08T20:28:01.986Z,20.49
2023-04-08T20:30:28.499Z,20.49
2023-04-08T20:32:54.898Z,20.48
2023-04-08T20:35:22.090Z,20.48
2023-04-08T20:37:48.568Z,20.48
2023-04-08T20:40:16.444Z,20.48
2023-04-08T20:42:44.480Z,20.48
2023-04-08T20:45:11.633Z,20.48
2023-04-08T20:47:38.584Z,20.47
2023-04-08T20:50:05.417Z,20.46
2023-04-08T20:52:31.842Z,20.46
2023-04-08T20:54:58.224Z,20.46
2023-04-08T20:57:24.641Z,20.45
2023-04-08T20:59:51.256Z,20.45
2023-04-08T21:02:20.677Z,20.44
2023-04-08T21:04:47.281Z,20.44
2023-04-08T21:07:13.590Z,20.42
2023-04-08T21:09:39.915Z,20.42
2023-04-08T21:12:06.250Z,20.42
2023-04-08T21:14:32.681Z,20.42
2023-04-08T21:16:59.012Z,20.40
2023-04-08T21:19:25.366Z,20.40
2023-04-08T21:21:51.680Z,20.39
2023-04-08T21:24:17.994Z,20.39
2023-04-08T21:26:44.417Z,20.38
2023-04-08T21:29:11.424Z,20.38
2023-04-08T21:31:37.993Z,20.38
2023-04-08T21:34:06.003Z,20.38
2023-04-08T21:36:32.335Z,20.37
2023-04-08T21:38:58.664Z,20.35
2023-04-08T21:41:25.001Z,20.35
2023-04-08T21:43:51.407Z,20.34
2023-04-08T21:46:17.852Z,20.33
2023-04-08T21:48:44.300Z,20.33
2023-04-08T21:51:14.461Z,20.32
2023-04-08T21:53:40.925Z,20.32
2023-04-08T21:56:07.807Z,20.32
2023-04-08T21:58:35.363Z,20.31
2023-04-08T22:01:01.809Z,20.31
2023-04-08T22:03:28.237Z,20.30
2023-04-08T22:05:54.658Z,20.29
2023-04-08T22:08:21.045Z,20.29
2023-04-08T22:10:47.739Z,20.28
2023-04-08T22:13:17.278Z,20.27
2023-04-08T22:15:43.586Z,20.27
2023-04-08T22:18:09.911Z,20.26
2023-04-08T22:20:36.590Z,20.26
2023-04-08T22:23:03.187Z,20.26
2023-04-08T22:25:29.505Z,20.25
2023-04-08T22:27:56.055Z,20.25
2023-04-08T22:30:22.420Z,20.24
2023-04-08T22:32:48.772Z,20.24
2023-04-08T22:35:15.312Z,20.23
2023-04-08T22:37:41.711Z,20.23
2023-04-08T22:40:08.408Z,20.20
2023-04-08T22:42:34.750Z,20.21
2023-04-08T22:45:01.116Z,20.20
2023-04-08T22:47:27.438Z,20.20
2023-04-08T22:49:53.776Z,20.19
2023-04-08T22:52:20.107Z,20.19
2023-04-08T22:54:46.446Z,20.18
2023-04-08T22:57:12.776Z,20.17
2023-04-08T22:59:39.117Z,20.17
2023-04-08T23:02:05.533Z,20.16
2023-04-08T23:04:32.082Z,20.15
2023-04-08T23:06:58.566Z,20.16
2023-04-08T23:09:26.653Z,20.15
2023-04-08T23:11:52.983Z,20.14
2023-04-08T23:14:19.340Z,20.14
2023-04-08T23:16:45.669Z,20.13
2023-04-08T23:19:12.026Z,20.13
2023-04-08T23:21:38.358Z,20.12
2023-04-08T23:24:04.752Z,20.12
2023-04-08T23:26:31.085Z,20.11
2023-04-08T23:28:57.435Z,20.09
2023-04-08T23:31:23.805Z,20.10
2023-04-08T23:33:50.162Z,20.08
2023-04-08T23:36:16.520Z,20.08
2023-04-08T23:38:42.953Z,20.07
2023-04-08T23:41:09.282Z,20.07
2023-04-08T23:43:36.190Z,20.07
2023-04-08T23:46:02.619Z,20.06
2023-04-08T23:48:28.942Z,20.05
2023-04-08T23:50:55.290Z,20.05
2023-04-08T23:53:21.617Z,20.03
2023-04-08T23:55:47.940Z,20.03
2023-04-08T23:58:14.261Z,20.02
